createdAt,value
2019-02-06T00:00:58.594Z,1.50
2019-02-06T00:05:13.672Z,1.26
2019-02-06T00:09:08.857Z,1.09
2019-02-06T00:13:12.335Z,0.99
2019-02-06T00:17:15.813Z,0.98
2019-02-06T00:21:20.675Z,0.99
2019-02-06T00:25:24.308Z,0.86
2019-02-06T00:29:27.770Z,0.86
2019-02-06T00:33:31.518Z,0.97
2019-02-06T00:37:34.970Z,1.02
2019-02-06T00:41:38.437Z,0.94
2019-02-06T00:45:41.920Z,0.91
2019-02-06T00:49:45.378Z,0.92
2019-02-06T00:53:48.857Z,0.97
2019-02-06T00:57:52.312Z,0.99
2019-02-06T01:01:55.776Z,1.01
2019-02-06T01:05:59.238Z,1.01
2019-02-06T01:10:02.726Z,1.06
2019-02-06T01:14:06.161Z,1.04
2019-02-06T01:18:09.624Z,1.05
2019-02-06T01:22:13.094Z,1.09
2019-02-06T01:26:16.557Z,1.19
2019-02-06T01:30:21.670Z,1.27
2019-02-06T01:34:25.118Z,1.36
2019-02-06T01:38:28.586Z,1.41
2019-02-06T01:42:32.048Z,1.41
2019-02-06T01:46:35.526Z,1.38
2019-02-06T01:50:39.354Z,1.34
2019-02-06T01:54:42.833Z,1.29
2019-02-06T01:58:46.558Z,1.24
2019-02-06T02:02:50.025Z,1.17
2019-02-06T02:06:53.492Z,1.11
2019-02-06T02:10:56.939Z,0.99
2019-02-06T02:15:00.409Z,0.98
2019-02-06T02:19:03.872Z,1.03
2019-02-06T02:23:07.344Z,1.08
2019-02-06T02:27:10.807Z,1.13
2019-02-06T02:31:14.325Z,1.15
2019-02-06T02:35:17.784Z,1.16
2019-02-06T02:39:21.254Z,1.18
2019-02-06T02:43:24.719Z,1.23
2019-02-06T02:47:28.190Z,1.28
2019-02-06T02:51:31.644Z,1.26
2019-02-06T02:55:35.112Z,1.27
2019-02-06T02:59:38.569Z,1.32
2019-02-06T03:03:46.690Z,1.38
2019-02-06T03:07:50.148Z,1.41
2019-02-06T03:11:53.614Z,1.52
2019-02-06T03:15:57.072Z,1.69
2019-02-06T03:20:00.573Z,1.83
2019-02-06T03:24:03.991Z,1.95
2019-02-06T03:28:07.562Z,2.05
2019-02-06T03:32:11.002Z,2.15
2019-02-06T03:36:14.443Z,2.18
2019-02-06T03:40:17.910Z,2.21
2019-02-06T03:44:21.369Z,2.23
2019-02-06T03:48:24.818Z,2.30
2019-02-06T03:52:28.282Z,2.37
2019-02-06T03:56:31.742Z,2.39
2019-02-06T04:00:35.201Z,2.40
2019-02-06T04:04:38.661Z,2.44
2019-02-06T04:08:43.453Z,2.54
2019-02-06T04:12:46.907Z,2.54
2019-02-06T04:16:50.748Z,2.52
2019-02-06T04:20:54.206Z,2.49
2019-02-06T04:24:57.666Z,2.48
2019-02-06T04:29:01.127Z,2.48
2019-02-06T04:33:04.580Z,2.45
2019-02-06T04:37:08.041Z,2.44
2019-02-06T04:41:11.503Z,2.43
2019-02-06T04:45:14.971Z,2.43
2019-02-06T04:49:18.416Z,2.47
2019-02-06T04:53:21.877Z,2.51
2019-02-06T04:57:25.345Z,2.52
2019-02-06T05:01:28.810Z,2.55
2019-02-06T05:05:32.278Z,2.57
2019-02-06T05:09:35.731Z,2.58
2019-02-06T05:13:39.190Z,2.62
2019-02-06T05:17:42.658Z,2.71
2019-02-06T05:21:46.148Z,2.70
2019-02-06T05:25:49.986Z,2.74
2019-02-06T05:29:53.451Z,2.74
2019-02-06T05:33:57.291Z,2.73
2019-02-06T05:38:00.760Z,2.74
2019-02-06T05:42:04.301Z,2.73
2019-02-06T05:46:07.785Z,2.73
2019-02-06T05:50:11.257Z,2.72
2019-02-06T05:54:14.721Z,2.73
2019-02-06T05:58:18.187Z,2.72
2019-02-06T06:02:21.651Z,2.73
2019-02-06T06:06:25.102Z,2.66
2019-02-06T06:10:28.566Z,2.66
2019-02-06T06:14:32.030Z,2.64
2019-02-06T06:18:35.502Z,2.63
2019-02-06T06:22:38.971Z,2.60
2019-02-06T06:26:42.430Z,2.62
2019-02-06T06:30:47.384Z,2.64
2019-02-06T06:34:50.957Z,2.64
2019-02-06T06:38:54.412Z,2.63
2019-02-06T06:42:57.877Z,2.68
2019-02-06T06:47:01.334Z,2.73
2019-02-06T06:51:04.799Z,2.74
2019-02-06T06:55:08.260Z,2.83
2019-02-06T06:59:11.724Z,2.93
2019-02-06T07:03:15.191Z,2.91
2019-02-06T07:07:18.917Z,2.86
2019-02-06T07:11:22.386Z,2.88
2019-02-06T07:15:26.023Z,2.83
2019-02-06T07:19:29.490Z,2.83
2019-02-06T07:23:32.958Z,2.87
2019-02-06T07:27:36.427Z,2.88
2019-02-06T07:31:39.890Z,2.87
2019-02-06T07:35:43.360Z,2.92
2019-02-06T07:39:46.828Z,3.03
2019-02-06T07:43:50.291Z,3.05
2019-02-06T07:47:53.771Z,3.08
2019-02-06T07:51:57.234Z,3.12
2019-02-06T07:56:00.699Z,3.16
2019-02-06T08:00:04.240Z,3.19
2019-02-06T08:04:08.780Z,3.16
2019-02-06T08:08:12.237Z,3.16
2019-02-06T08:12:15.714Z,3.12
2019-02-06T08:16:19.176Z,3.05
2019-02-06T08:20:22.644Z,3.01
2019-02-06T08:24:26.494Z,3.00
2019-02-06T08:28:29.962Z,3.27
2019-02-06T08:32:33.800Z,3.66
2019-02-06T08:36:37.272Z,3.47
2019-02-06T08:40:40.744Z,3.37
2019-02-06T08:44:44.213Z,3.32
2019-02-06T08:48:47.679Z,3.33
2019-02-06T08:52:51.148Z,3.36
2019-02-06T08:56:54.612Z,3.41
2019-02-06T09:00:58.090Z,3.43
2019-02-06T09:05:01.562Z,3.42
2019-02-06T09:09:05.037Z,3.47
2019-02-06T09:13:10.081Z,3.54
2019-02-06T09:17:13.544Z,3.62
2019-02-06T09:21:17.018Z,3.72
2019-02-06T09:25:20.476Z,3.90
2019-02-06T09:29:23.934Z,4.02
2019-02-06T09:33:27.678Z,4.12
2019-02-06T09:37:31.167Z,4.28
2019-02-06T09:41:35.004Z,4.44
2019-02-06T09:45:38.458Z,4.58
2019-02-06T09:49:42.107Z,4.68
2019-02-06T09:53:45.585Z,4.83
2019-02-06T09:57:49.056Z,4.95
2019-02-06T10:01:53.609Z,5.02
2019-02-06T10:05:57.065Z,5.13
2019-02-06T10:10:00.535Z,5.26
2019-02-06T10:14:03.996Z,5.35
2019-02-06T10:18:07.477Z,5.38
2019-02-06T10:22:10.932Z,5.49
2019-02-06T10:26:14.378Z,5.64
2019-02-06T10:30:17.851Z,5.64
2019-02-06T10:34:21.326Z,5.68
2019-02-06T10:38:24.786Z,5.60
2019-02-06T10:42:28.245Z,5.58
2019-02-06T10:46:31.701Z,5.58
2019-02-06T10:50:35.161Z,5.69
2019-02-06T10:54:38.638Z,5.77
2019-02-06T10:58:42.374Z,5.93
2019-02-06T11:02:45.853Z,6.01
2019-02-06T11:06:49.686Z,6.11
2019-02-06T11:10:53.149Z,6.14
2019-02-06T11:14:56.622Z,6.14
2019-02-06T11:19:00.102Z,6.10
2019-02-06T11:23:03.565Z,6.08
2019-02-06T11:27:07.033Z,6.07
2019-02-06T11:31:10.496Z,6.01
2019-02-06T11:35:13.962Z,6.03
2019-02-06T11:39:19.076Z,6.12
2019-02-06T11:43:22.673Z,6.15
2019-02-06T11:47:26.075Z,6.09
2019-02-06T11:51:29.627Z,6.09
2019-02-06T11:55:33.079Z,6.13
2019-02-06T11:59:36.544Z,6.31
2019-02-06T12:03:40.011Z,6.37
2019-02-06T12:07:43.844Z,6.35
2019-02-06T12:11:47.319Z,6.40
2019-02-06T12:15:51.057Z,6.50
2019-02-06T12:19:54.527Z,6.58
2019-02-06T12:23:58.059Z,6.61
2019-02-06T12:28:01.538Z,6.56
2019-02-06T12:32:05.004Z,6.50
2019-02-06T12:36:08.473Z,6.51
2019-02-06T12:40:21.195Z,6.52
2019-02-06T12:44:17.091Z,6.66
2019-02-06T12:48:20.867Z,6.78
2019-02-06T12:52:24.304Z,6.84
2019-02-06T12:56:27.770Z,6.89
2019-02-06T13:00:31.233Z,6.86
2019-02-06T13:04:34.695Z,6.88
2019-02-06T13:08:38.165Z,7.01
2019-02-06T13:12:41.629Z,7.13
2019-02-06T13:16:45.096Z,7.25
2019-02-06T13:20:51.195Z,7.23
2019-02-06T13:24:53.710Z,7.26
2019-02-06T13:28:57.184Z,7.26
2019-02-06T13:33:00.644Z,7.20
2019-02-06T13:37:04.129Z,7.02
2019-02-06T13:41:07.603Z,6.85
2019-02-06T13:45:11.055Z,6.69
2019-02-06T13:49:14.530Z,6.61
2019-02-06T13:53:18.000Z,6.56
2019-02-06T13:57:33.106Z,6.50
2019-02-06T14:01:26.917Z,6.51
2019-02-06T14:05:30.374Z,6.46
2019-02-06T14:09:34.934Z,6.39
2019-02-06T14:13:38.393Z,6.36
2019-02-06T14:17:41.867Z,6.41
2019-02-06T14:21:46.421Z,6.46
2019-02-06T14:25:49.870Z,6.53
2019-02-06T14:29:53.340Z,6.63
2019-02-06T14:33:56.806Z,6.75
2019-02-06T14:38:00.271Z,6.88
2019-02-06T14:42:03.826Z,6.95
2019-02-06T14:46:07.291Z,7.00
2019-02-06T14:50:11.139Z,7.06
2019-02-06T14:54:15.571Z,7.11
2019-02-06T14:58:19.123Z,7.09
2019-02-06T15:02:23.570Z,7.05
2019-02-06T15:06:27.433Z,7.02
2019-02-06T15:10:30.910Z,6.99
2019-02-06T15:14:34.451Z,6.95
2019-02-06T15:18:37.919Z,6.92
2019-02-06T15:22:41.389Z,6.86
2019-02-06T15:26:44.849Z,6.77
2019-02-06T15:30:48.308Z,6.72
2019-02-06T15:34:52.144Z,6.65
2019-02-06T15:38:55.611Z,6.55
2019-02-06T15:42:59.076Z,6.39
2019-02-06T15:47:02.540Z,6.24
2019-02-06T15:51:06.047Z,6.14
2019-02-06T15:55:09.493Z,6.05
2019-02-06T15:59:12.959Z,5.96
2019-02-06T16:03:16.427Z,5.87
2019-02-06T16:07:19.894Z,5.73
2019-02-06T16:11:23.362Z,5.58
2019-02-06T16:15:26.837Z,5.44
2019-02-06T16:19:30.310Z,5.31
2019-02-06T16:23:33.762Z,5.17
2019-02-06T16:27:37.407Z,5.06
2019-02-06T16:31:40.872Z,4.95
2019-02-06T16:35:44.715Z,4.85
2019-02-06T16:39:48.190Z,4.80
2019-02-06T16:43:51.636Z,4.76
2019-02-06T16:47:56.177Z,4.70
2019-02-06T16:51:59.642Z,4.65
2019-02-06T16:56:03.199Z,4.60
2019-02-06T17:00:06.662Z,4.55
2019-02-06T17:04:10.127Z,4.48
2019-02-06T17:08:13.589Z,4.42
2019-02-06T17:12:17.069Z,4.39
2019-02-06T17:16:20.536Z,4.37
2019-02-06T17:20:24.380Z,4.33
2019-02-06T17:24:27.838Z,4.28
2019-02-06T17:28:31.308Z,4.20
2019-02-06T17:32:34.777Z,4.13
2019-02-06T17:36:38.254Z,4.11
2019-02-06T17:40:41.717Z,4.09
2019-02-06T17:44:45.169Z,4.03
2019-02-06T17:48:48.642Z,3.99
2019-02-06T17:52:52.112Z,3.94
2019-02-06T17:56:55.594Z,3.90
2019-02-06T18:01:00.709Z,3.87
2019-02-06T18:05:05.512Z,3.83
2019-02-06T18:09:09.048Z,3.84
2019-02-06T18:13:12.513Z,3.85
2019-02-06T18:17:15.982Z,3.89
2019-02-06T18:21:19.513Z,3.89
2019-02-06T18:25:22.972Z,3.88
2019-02-06T18:29:26.442Z,3.87
2019-02-06T18:33:29.970Z,3.85
2019-02-06T18:37:33.377Z,3.88
2019-02-06T18:41:36.834Z,3.88
2019-02-06T18:45:40.298Z,3.85
2019-02-06T18:49:43.774Z,3.82
2019-02-06T18:53:47.239Z,3.76
2019-02-06T18:57:50.704Z,3.77
2019-02-06T19:01:55.476Z,3.77
2019-02-06T19:05:59.174Z,3.75
2019-02-06T19:10:03.010Z,3.69
2019-02-06T19:14:06.517Z,3.62
2019-02-06T19:18:10.258Z,3.63
2019-02-06T19:22:13.716Z,3.65
2019-02-06T19:26:17.253Z,3.67
2019-02-06T19:30:20.719Z,3.72
2019-02-06T19:34:24.188Z,3.76
2019-02-06T19:38:27.660Z,3.84
2019-02-06T19:42:31.112Z,3.88
2019-02-06T19:46:34.581Z,3.89
2019-02-06T19:50:38.228Z,3.89
2019-02-06T19:54:41.688Z,3.90
2019-02-06T19:58:45.162Z,3.91
2019-02-06T20:02:48.621Z,3.92
2019-02-06T20:06:54.103Z,3.90
2019-02-06T20:10:57.243Z,3.84
2019-02-06T20:15:00.714Z,3.74
2019-02-06T20:19:04.176Z,3.59
2019-02-06T20:23:07.636Z,3.56
2019-02-06T20:27:11.104Z,3.48
2019-02-06T20:31:14.571Z,3.37
2019-02-06T20:35:18.044Z,3.30
2019-02-06T20:39:21.492Z,3.24
2019-02-06T20:43:24.957Z,3.18
2019-02-06T20:47:28.427Z,3.10
2019-02-06T20:51:32.723Z,3.01
2019-02-06T20:55:36.188Z,2.93
2019-02-06T20:59:39.645Z,2.86
2019-02-06T21:03:43.115Z,2.80
2019-02-06T21:07:46.595Z,2.75
2019-02-06T21:11:50.064Z,2.69
2019-02-06T21:15:53.534Z,2.59
2019-02-06T21:19:57.368Z,2.55
2019-02-06T21:24:00.834Z,2.52
2019-02-06T21:28:04.475Z,2.51
2019-02-06T21:32:07.936Z,2.50
2019-02-06T21:36:11.386Z,2.53
2019-02-06T21:40:14.846Z,2.54
2019-02-06T21:44:18.318Z,2.62
2019-02-06T21:48:22.387Z,3.07
2019-02-06T21:52:25.923Z,3.05
2019-02-06T21:56:29.385Z,3.01
2019-02-06T22:00:32.864Z,2.93
2019-02-06T22:04:36.310Z,2.89
2019-02-06T22:08:39.774Z,2.86
2019-02-06T22:12:43.229Z,2.83
2019-02-06T22:16:46.696Z,2.81
2019-02-06T22:20:50.552Z,2.73
2019-02-06T22:24:54.013Z,2.66
2019-02-06T22:28:57.754Z,2.64
2019-02-06T22:33:01.209Z,2.58
2019-02-06T22:37:04.680Z,2.54
2019-02-06T22:41:08.144Z,2.51
2019-02-06T22:45:11.608Z,2.55
2019-02-06T22:49:15.080Z,2.51
2019-02-06T22:53:18.529Z,2.46
2019-02-06T22:57:21.994Z,2.36
2019-02-06T23:01:25.461Z,2.31
2019-02-06T23:05:28.921Z,2.29
2019-02-06T23:09:32.397Z,2.28
2019-02-06T23:13:35.847Z,2.24
2019-02-06T23:17:39.319Z,2.21
2019-02-06T23:21:43.054Z,2.10
2019-02-06T23:25:46.524Z,2.11
2019-02-06T23:29:50.048Z,2.10
2019-02-06T23:33:53.514Z,2.06
2019-02-06T23:37:56.974Z,2.03
2019-02-06T23:42:00.443Z,2.01
2019-02-06T23:46:03.982Z,1.98
2019-02-06T23:50:07.445Z,1.93
2019-02-06T23:54:10.908Z,1.95
2019-02-06T23:58:14.370Z,1.92
